createdAt,value
2018-11-28T00:01:28.771Z,98029.30
2018-11-28T00:03:56.463Z,98026.70
2018-11-28T00:06:24.126Z,98021.39
2018-11-28T00:08:51.783Z,98025.95
2018-11-28T00:11:19.470Z,98020.78
2018-11-28T00:13:47.094Z,98024.91
2018-11-28T00:16:14.754Z,98029.74
2018-11-28T00:18:42.407Z,98026.40
2018-11-28T00:21:10.060Z,98026.11
2018-11-28T00:23:37.694Z,98029.80
2018-11-28T00:26:05.344Z,98027.45
2018-11-28T00:28:32.999Z,98020.73
2018-11-28T00:31:00.690Z,98030.05
2018-11-28T00:33:28.344Z,98030.58
2018-11-28T00:35:56.012Z,98028.80
2018-11-28T00:38:23.677Z,98033.27
2018-11-28T00:40:51.335Z,98037.72
2018-11-28T00:43:19.014Z,98038.94
2018-11-28T00:45:46.695Z,98037.86
2018-11-28T00:48:14.355Z,98037.80
2018-11-28T00:50:42.010Z,98036.76
2018-11-28T00:53:09.656Z,98038.04
2018-11-28T00:55:37.322Z,98035.36
2018-11-28T00:58:04.958Z,98037.45
2018-11-28T01:00:32.603Z,98034.87
2018-11-28T01:03:00.256Z,98039.30
2018-11-28T01:05:27.931Z,98039.68
2018-11-28T01:07:55.976Z,98051.23
2018-11-28T01:10:24.026Z,98049.00
2018-11-28T01:12:52.148Z,98054.61
2018-11-28T01:15:20.284Z,98060.22
2018-11-28T01:17:47.998Z,98055.20
2018-11-28T01:20:16.327Z,98064.66
2018-11-28T01:22:44.035Z,98062.16
2018-11-28T01:25:12.168Z,98068.04
2018-11-28T01:27:39.840Z,98070.28
2018-11-28T01:30:11.211Z,98070.22
2018-11-28T01:32:38.852Z,98068.34
2018-11-28T01:35:07.351Z,98075.30
2018-11-28T01:37:35.004Z,98076.99
2018-11-28T01:40:02.851Z,98079.32
2018-11-28T01:42:30.516Z,98083.11
2018-11-28T01:44:58.161Z,98080.19
2018-11-28T01:47:25.821Z,98082.94
2018-11-28T01:49:53.510Z,98082.81
2018-11-28T01:52:21.179Z,98081.30
2018-11-28T01:54:48.832Z,98084.52
2018-11-28T01:57:16.540Z,98085.71
2018-11-28T01:59:45.268Z,98086.96
2018-11-28T02:02:12.920Z,98090.06
2018-11-28T02:04:40.583Z,98083.92
2018-11-28T02:07:08.264Z,98084.75
2018-11-28T02:09:36.084Z,98088.42
2018-11-28T02:12:03.730Z,98090.63
2018-11-28T02:14:31.367Z,98090.34
2018-11-28T02:16:59.022Z,98091.17
2018-11-28T02:19:26.713Z,98086.55
2018-11-28T02:21:54.363Z,98084.70
2018-11-28T02:24:22.047Z,98090.19
2018-11-28T02:26:49.721Z,98085.05
2018-11-28T02:29:17.359Z,98086.91
2018-11-28T02:31:45.023Z,98091.17
2018-11-28T02:34:12.671Z,98092.34
2018-11-28T02:36:40.352Z,98094.97
2018-11-28T02:39:08.712Z,98095.31
2018-11-28T02:41:36.357Z,98096.55
2018-11-28T02:44:04.261Z,98097.73
2018-11-28T02:46:31.950Z,98094.66
2018-11-28T02:48:59.602Z,98088.78
2018-11-28T02:51:27.268Z,98083.77
2018-11-28T02:53:54.933Z,98084.66
2018-11-28T02:56:22.580Z,98087.86
2018-11-28T02:58:50.258Z,98104.16
2018-11-28T03:01:17.909Z,98102.63
2018-11-28T03:03:45.551Z,98106.66
2018-11-28T03:06:13.216Z,98110.18
2018-11-28T03:08:40.859Z,98110.98
2018-11-28T03:11:08.519Z,98124.06
2018-11-28T03:13:36.367Z,98118.77
2018-11-28T03:16:10.472Z,98113.67
2018-11-28T03:18:38.524Z,98118.53
2018-11-28T03:21:06.432Z,98120.33
2018-11-28T03:23:34.108Z,98121.52
2018-11-28T03:26:01.774Z,98126.30
2018-11-28T03:28:29.423Z,98123.77
2018-11-28T03:30:57.043Z,98124.30
2018-11-28T03:33:24.729Z,98127.55
2018-11-28T03:35:52.360Z,98131.08
2018-11-28T03:38:19.995Z,98132.12
2018-11-28T03:40:47.716Z,98133.25
2018-11-28T03:43:15.365Z,98137.20
2018-11-28T03:45:43.042Z,98138.24
2018-11-28T03:48:10.671Z,98139.94
2018-11-28T03:50:38.347Z,98138.53
2018-11-28T03:53:06.238Z,98137.44
2018-11-28T03:55:33.919Z,98146.84
2018-11-28T03:58:01.617Z,98145.70
2018-11-28T04:00:29.252Z,98143.16
2018-11-28T04:02:56.882Z,98144.72
2018-11-28T04:05:24.499Z,98142.80
2018-11-28T04:07:52.118Z,98143.55
2018-11-28T04:10:19.760Z,98147.34
2018-11-28T04:12:47.387Z,98142.75
2018-11-28T04:15:18.687Z,98144.09
2018-11-28T04:17:46.325Z,98145.44
2018-11-28T04:20:14.506Z,98138.00
2018-11-28T04:22:42.128Z,98135.55
2018-11-28T04:25:10.184Z,98147.11
2018-11-28T04:27:37.824Z,98147.83
2018-11-28T04:30:07.630Z,98150.57
2018-11-28T04:32:35.278Z,98146.45
2018-11-28T04:35:02.953Z,98152.12
2018-11-28T04:37:30.582Z,98149.44
2018-11-28T04:39:58.213Z,98153.71
2018-11-28T04:42:25.855Z,98151.86
2018-11-28T04:44:53.496Z,98152.48
2018-11-28T04:47:21.145Z,98153.86
2018-11-28T04:49:48.780Z,98148.04
2018-11-28T04:52:16.411Z,98155.80
2018-11-28T04:54:44.048Z,98154.81
2018-11-28T04:57:11.708Z,98156.61
2018-11-28T04:59:39.340Z,98148.34
2018-11-28T05:02:06.970Z,98155.86
2018-11-28T05:04:34.632Z,98166.31
2018-11-28T05:07:32.823Z,98154.22
2018-11-28T05:10:00.474Z,98156.34
2018-11-28T05:12:28.111Z,98158.79
2018-11-28T05:14:55.751Z,98156.31
2018-11-28T05:17:23.388Z,98149.63
2018-11-28T05:19:51.029Z,98140.67
2018-11-28T05:22:18.680Z,98140.08
2018-11-28T05:24:46.319Z,98145.05
2018-11-28T05:27:13.948Z,98152.77
2018-11-28T05:29:41.595Z,98154.16
2018-11-28T05:32:09.264Z,98154.46
2018-11-28T05:34:36.875Z,98154.16
2018-11-28T05:37:04.620Z,98157.98
2018-11-28T05:39:32.249Z,98162.44
2018-11-28T05:41:59.871Z,98163.63
2018-11-28T05:44:27.511Z,98168.59
2018-11-28T05:46:55.252Z,98172.16
2018-11-28T05:49:22.899Z,98177.16
2018-11-28T05:51:50.532Z,98174.02
2018-11-28T05:54:18.172Z,98178.73
2018-11-28T05:56:45.803Z,98172.67
2018-11-28T05:59:13.422Z,98172.91
2018-11-28T06:01:41.047Z,98170.23
2018-11-28T06:04:08.736Z,98179.31
2018-11-28T06:06:36.392Z,98180.59
2018-11-28T06:09:05.007Z,98182.47
2018-11-28T06:11:32.622Z,98184.57
2018-11-28T06:14:00.262Z,98185.44
2018-11-28T06:16:29.011Z,98188.14
2018-11-28T06:18:56.638Z,98186.02
2018-11-28T06:21:24.283Z,98189.78
2018-11-28T06:23:51.961Z,98191.05
2018-11-28T06:26:19.687Z,98190.22
2018-11-28T06:28:47.355Z,98187.55
2018-11-28T06:31:15.018Z,98191.86
2018-11-28T06:33:42.640Z,98197.77
2018-11-28T06:36:10.295Z,98199.05
2018-11-28T06:38:37.930Z,98200.61
2018-11-28T06:41:05.855Z,98203.83
2018-11-28T06:43:33.473Z,98210.37
2018-11-28T06:46:01.092Z,98210.67
2018-11-28T06:48:28.715Z,98212.20
2018-11-28T06:50:56.330Z,98217.03
2018-11-28T06:53:23.943Z,98211.36
2018-11-28T06:55:51.580Z,98218.37
2018-11-28T06:58:19.231Z,98213.75
2018-11-28T07:00:46.850Z,98211.72
2018-11-28T07:03:14.512Z,98220.25
2018-11-28T07:05:42.148Z,98218.72
2018-11-28T07:08:09.775Z,98221.58
2018-11-28T07:10:37.399Z,98217.27
2018-11-28T07:13:05.267Z,98220.61
2018-11-28T07:15:32.902Z,98233.67
2018-11-28T07:18:06.148Z,98233.37
2018-11-28T07:20:33.784Z,98237.34
2018-11-28T07:23:01.408Z,98238.83
2018-11-28T07:25:29.108Z,98235.49
2018-11-28T07:27:56.747Z,98239.52
2018-11-28T07:30:24.375Z,98239.94
2018-11-28T07:32:54.920Z,98243.38
2018-11-28T07:35:22.539Z,98244.95
2018-11-28T07:37:50.217Z,98246.00
2018-11-28T07:40:18.572Z,98249.98
2018-11-28T07:42:47.211Z,98257.34
2018-11-28T07:45:14.847Z,98255.35
2018-11-28T07:47:42.478Z,98261.59
2018-11-28T07:50:10.358Z,98265.57
2018-11-28T07:52:38.216Z,98266.40
2018-11-28T07:55:06.893Z,98267.96
2018-11-28T07:57:34.535Z,98262.83
2018-11-28T08:00:02.279Z,98267.56
2018-11-28T08:02:29.849Z,98267.16
2018-11-28T08:04:57.475Z,98267.80
2018-11-28T08:07:25.116Z,98268.04
2018-11-28T08:09:52.756Z,98263.34
2018-11-28T08:12:20.407Z,98266.02
2018-11-28T08:14:48.065Z,98264.41
2018-11-28T08:17:15.704Z,98264.41
2018-11-28T08:19:43.338Z,98264.23
2018-11-28T08:22:10.967Z,98269.89
2018-11-28T08:24:38.664Z,98266.05
2018-11-28T08:27:06.280Z,98265.35
2018-11-28T08:29:33.895Z,98265.86
2018-11-28T08:32:01.614Z,98268.84
2018-11-28T08:34:29.237Z,98269.30
2018-11-28T08:36:56.868Z,98275.44
2018-11-28T08:39:24.523Z,98278.30
2018-11-28T08:41:52.165Z,98285.33
2018-11-28T08:44:19.828Z,98287.26
2018-11-28T08:46:47.504Z,98280.35
2018-11-28T08:49:15.123Z,98277.42
2018-11-28T08:51:42.749Z,98272.23
2018-11-28T08:54:10.385Z,98276.21
2018-11-28T08:56:38.003Z,98277.02
2018-11-28T08:59:06.059Z,98286.77
2018-11-28T09:01:33.735Z,98286.48
2018-11-28T09:04:01.386Z,98289.95
2018-11-28T09:06:29.015Z,98288.36
2018-11-28T09:08:56.659Z,98294.20
2018-11-28T09:11:24.295Z,98300.11
2018-11-28T09:13:51.940Z,98300.38
2018-11-28T09:16:19.645Z,98298.30
2018-11-28T09:18:47.332Z,98299.17
2018-11-28T09:21:14.971Z,98300.75
2018-11-28T09:23:42.615Z,98302.09
2018-11-28T09:26:14.445Z,98304.44
2018-11-28T09:28:42.100Z,98305.59
2018-11-28T09:31:09.739Z,98306.08
2018-11-28T09:33:37.384Z,98305.64
2018-11-28T09:36:05.123Z,98314.41
2018-11-28T09:38:32.829Z,98315.19
2018-11-28T09:41:00.479Z,98317.92
2018-11-28T09:43:29.175Z,98316.29
2018-11-28T09:45:55.821Z,98317.39
2018-11-28T09:48:23.484Z,98318.14
2018-11-28T09:50:51.144Z,98315.41
2018-11-28T09:53:18.783Z,98321.66
2018-11-28T09:55:46.419Z,98318.44
2018-11-28T09:58:14.068Z,98315.23
2018-11-28T10:00:41.692Z,98313.66
2018-11-28T10:03:09.325Z,98313.60
2018-11-28T10:05:36.998Z,98317.45
2018-11-28T10:08:04.635Z,98312.09
2018-11-28T10:10:32.336Z,98307.77
2018-11-28T10:12:59.978Z,98298.95
2018-11-28T10:15:28.095Z,98304.33
2018-11-28T10:17:55.735Z,98305.67
2018-11-28T10:20:23.376Z,98303.56
2018-11-28T10:22:51.560Z,98299.17
2018-11-28T10:25:19.707Z,98304.03
2018-11-28T10:27:48.011Z,98295.78
2018-11-28T10:30:16.378Z,98295.48
2018-11-28T10:32:44.030Z,98298.47
2018-11-28T10:35:11.678Z,98299.22
2018-11-28T10:37:39.349Z,98299.81
2018-11-28T10:40:09.284Z,98295.48
2018-11-28T10:42:36.933Z,98299.46
2018-11-28T10:45:05.225Z,98299.22
2018-11-28T10:47:32.893Z,98302.73
2018-11-28T10:50:00.536Z,98300.86
2018-11-28T10:52:28.172Z,98299.41
2018-11-28T10:54:55.857Z,98298.66
2018-11-28T10:57:23.492Z,98308.58
2018-11-28T10:59:51.123Z,98303.25
2018-11-28T11:02:23.984Z,98303.27
2018-11-28T11:04:56.913Z,98297.12
2018-11-28T11:07:29.768Z,98290.48
2018-11-28T11:10:02.537Z,98297.36
2018-11-28T11:12:35.571Z,98294.14
2018-11-28T11:15:03.227Z,98286.21
2018-11-28T11:17:30.889Z,98282.34
2018-11-28T11:19:58.562Z,98285.05
2018-11-28T11:22:26.221Z,98291.18
2018-11-28T11:24:53.853Z,98293.33
2018-11-28T11:27:21.482Z,98286.02
2018-11-28T11:29:49.127Z,98285.78
2018-11-28T11:32:16.860Z,98290.34
2018-11-28T11:34:44.512Z,98281.83
2018-11-28T11:37:12.139Z,98285.03
2018-11-28T11:39:39.795Z,98287.25
2018-11-28T11:42:07.470Z,98279.14
2018-11-28T11:44:35.089Z,98279.67
2018-11-28T11:47:02.724Z,98283.92
2018-11-28T11:49:30.372Z,98284.75
2018-11-28T11:51:58.032Z,98283.69
2018-11-28T11:54:25.664Z,98280.19
2018-11-28T11:56:53.288Z,98277.50
2018-11-28T11:59:20.981Z,98274.87
2018-11-28T12:01:54.563Z,98279.19
2018-11-28T12:04:16.299Z,98286.98
2018-11-28T12:06:43.977Z,98279.59
2018-11-28T12:09:11.619Z,98273.77
2018-11-28T12:11:39.281Z,98266.70
2018-11-28T12:14:06.945Z,98275.34
2018-11-28T12:16:34.696Z,98266.40
2018-11-28T12:19:02.411Z,98271.61
2018-11-28T12:21:30.104Z,98283.17
2018-11-28T12:23:57.814Z,98276.45
2018-11-28T12:26:25.588Z,98277.34
2018-11-28T12:28:53.336Z,98280.31
2018-11-28T12:31:21.279Z,98281.15
2018-11-28T12:33:49.039Z,98279.78
2018-11-28T12:36:16.845Z,98271.45
2018-11-28T12:38:45.052Z,98174.78
2018-11-28T12:41:13.212Z,98278.68
2018-11-28T12:43:41.007Z,98280.85
2018-11-28T12:46:08.737Z,98278.68
2018-11-28T12:48:36.392Z,98284.34
2018-11-28T12:51:04.028Z,98279.97
2018-11-28T12:53:31.919Z,98276.80
2018-11-28T12:55:59.692Z,98274.83
2018-11-28T12:58:27.442Z,98277.12
2018-11-28T13:00:55.299Z,98276.64
2018-11-28T13:03:23.022Z,98276.29
2018-11-28T13:05:50.814Z,98279.86
2018-11-28T13:08:18.556Z,98279.10
2018-11-28T13:10:46.276Z,98279.91
2018-11-28T13:13:14.129Z,98275.75
2018-11-28T13:15:41.830Z,98269.64
2018-11-28T13:18:10.658Z,98278.73
2018-11-28T13:20:38.788Z,98277.12
2018-11-28T13:23:07.152Z,98276.36
2018-11-28T13:25:34.823Z,98271.63
2018-11-28T13:28:02.555Z,98271.68
2018-11-28T13:30:30.330Z,98274.84
2018-11-28T13:32:58.036Z,98267.82
2018-11-28T13:35:26.240Z,98271.09
2018-11-28T13:37:55.644Z,98266.95
2018-11-28T13:40:23.632Z,98274.48
2018-11-28T13:42:51.408Z,98263.78
2018-11-28T13:45:20.636Z,98273.78
2018-11-28T13:47:49.869Z,98278.34
2018-11-28T13:50:17.579Z,98279.16
2018-11-28T13:52:45.348Z,98280.95
2018-11-28T13:55:39.785Z,98283.67
2018-11-28T13:57:59.023Z,98284.72
2018-11-28T14:00:27.167Z,98288.50
2018-11-28T14:02:55.993Z,98290.66
2018-11-28T14:05:23.735Z,98292.66
2018-11-28T14:07:51.562Z,98291.89
2018-11-28T14:10:19.187Z,98294.71
2018-11-28T14:12:46.916Z,98293.59
2018-11-28T14:15:15.238Z,98287.97
2018-11-28T14:17:43.738Z,98295.00
2018-11-28T14:20:11.604Z,98298.20
2018-11-28T14:22:40.090Z,98298.55
2018-11-28T14:25:08.553Z,98306.84
2018-11-28T14:27:36.392Z,98311.64
2018-11-28T14:30:04.748Z,98310.30
2018-11-28T14:32:32.382Z,98304.11
2018-11-28T14:35:00.218Z,98310.30
2018-11-28T14:37:27.945Z,98303.53
2018-11-28T14:39:55.699Z,98301.65
2018-11-28T14:42:24.015Z,98310.76
2018-11-28T14:44:51.737Z,98311.34
2018-11-28T14:47:19.506Z,98311.56
2018-11-28T14:49:47.374Z,98308.95
2018-11-28T14:52:15.040Z,98315.91
2018-11-28T14:54:42.678Z,98305.44
2018-11-28T14:57:10.298Z,98308.42
2018-11-28T14:59:40.437Z,98311.05
2018-11-28T15:02:06.284Z,98318.06
2018-11-28T15:04:33.945Z,98318.28
2018-11-28T15:07:01.875Z,98321.22
2018-11-28T15:09:35.769Z,98315.84
2018-11-28T15:12:04.107Z,98318.88
2018-11-28T15:14:31.736Z,98322.50
2018-11-28T15:16:59.381Z,98323.14
2018-11-28T15:19:27.039Z,98322.31
2018-11-28T15:21:54.764Z,98322.02
2018-11-28T15:24:22.529Z,98320.62
2018-11-28T15:26:50.363Z,98321.67
2018-11-28T15:29:18.074Z,98317.70
2018-11-28T15:31:45.953Z,98326.83
2018-11-28T15:34:13.759Z,98325.19
2018-11-28T15:36:41.480Z,98328.64
2018-11-28T15:39:09.468Z,98328.05
2018-11-28T15:41:37.703Z,98333.48
2018-11-28T15:44:05.419Z,98330.79
2018-11-28T15:46:33.241Z,98327.93
2018-11-28T15:49:01.079Z,98335.34
2018-11-28T15:51:28.706Z,98338.56
2018-11-28T15:53:56.403Z,98340.27
2018-11-28T15:56:24.056Z,98336.75
2018-11-28T15:58:51.726Z,98336.75
2018-11-28T16:01:19.392Z,98340.73
2018-11-28T16:03:47.027Z,98346.37
2018-11-28T16:06:14.716Z,98345.28
2018-11-28T16:08:42.344Z,98342.71
2018-11-28T16:11:11.102Z,98343.98
2018-11-28T16:13:38.792Z,98341.78
2018-11-28T16:16:06.790Z,98340.44
2018-11-28T16:18:34.424Z,98347.50
2018-11-28T16:21:02.106Z,98338.97
2018-11-28T16:23:29.756Z,98339.14
2018-11-28T16:25:57.406Z,98339.68
2018-11-28T16:28:25.065Z,98340.71
2018-11-28T16:30:52.759Z,98339.14
2018-11-28T16:33:20.557Z,98333.77
2018-11-28T16:35:48.202Z,98346.11
2018-11-28T16:38:15.894Z,98341.00
2018-11-28T16:40:43.546Z,98344.47
2018-11-28T16:43:11.193Z,98338.04
2018-11-28T16:45:38.820Z,98338.91
2018-11-28T16:48:06.507Z,98343.47
2018-11-28T16:50:34.139Z,98345.05
2018-11-28T16:53:01.771Z,98354.05
2018-11-28T16:55:29.422Z,98357.78
2018-11-28T16:57:57.055Z,98348.13
2018-11-28T17:00:25.530Z,98353.11
2018-11-28T17:02:53.619Z,98359.06
2018-11-28T17:05:21.795Z,98363.50
2018-11-28T17:07:49.514Z,98364.27
2018-11-28T17:10:19.573Z,98366.89
2018-11-28T17:12:47.730Z,98369.65
2018-11-28T17:15:16.755Z,98370.41
2018-11-28T17:17:44.509Z,98375.20
2018-11-28T17:20:12.663Z,98368.82
2018-11-28T17:22:40.323Z,98368.53
2018-11-28T17:25:10.163Z,98364.27
2018-11-28T17:27:38.092Z,98369.65
2018-11-28T17:30:06.697Z,98366.95
2018-11-28T17:32:34.403Z,98365.66
2018-11-28T17:35:02.047Z,98361.34
2018-11-28T17:37:29.691Z,98362.39
2018-11-28T17:39:57.311Z,98360.30
2018-11-28T17:42:25.017Z,98362.45
2018-11-28T17:44:52.824Z,98356.97
2018-11-28T17:47:20.446Z,98353.99
2018-11-28T17:49:48.078Z,98345.91
2018-11-28T17:52:15.750Z,98338.68
2018-11-28T17:54:43.454Z,98340.66
2018-11-28T17:57:11.115Z,98345.69
2018-11-28T17:59:38.747Z,98346.45
2018-11-28T18:02:06.449Z,98347.55
2018-11-28T18:04:34.072Z,98349.19
2018-11-28T18:07:01.682Z,98351.59
2018-11-28T18:09:29.319Z,98362.28
2018-11-28T18:11:56.943Z,98354.27
2018-11-28T18:14:24.568Z,98358.55
2018-11-28T18:16:52.224Z,98353.39
2018-11-28T18:19:19.867Z,98344.77
2018-11-28T18:21:47.486Z,98350.88
2018-11-28T18:24:15.117Z,98354.34
2018-11-28T18:26:42.753Z,98366.26
2018-11-28T18:29:10.519Z,98354.03
2018-11-28T18:31:38.165Z,98345.05
2018-11-28T18:34:05.810Z,98343.98
2018-11-28T18:36:33.475Z,98345.39
2018-11-28T18:39:01.138Z,98344.05
2018-11-28T18:41:28.805Z,98344.75
2018-11-28T18:43:56.445Z,98353.16
2018-11-28T18:46:24.074Z,98354.39
2018-11-28T18:48:51.787Z,98361.98
2018-11-28T18:51:19.447Z,98352.83
2018-11-28T18:53:49.511Z,98351.12
2018-11-28T18:56:14.794Z,98355.78
2018-11-28T18:58:42.430Z,98349.59
2018-11-28T19:01:10.046Z,98338.63
2018-11-28T19:03:37.666Z,98350.41
2018-11-28T19:06:05.340Z,98352.58
2018-11-28T19:08:33.019Z,98354.17
2018-11-28T19:11:01.151Z,98355.48
2018-11-28T19:13:28.322Z,98354.15
2018-11-28T19:15:56.009Z,98354.63
2018-11-28T19:18:23.665Z,98353.88
2018-11-28T19:20:51.299Z,98349.31
2018-11-28T19:23:18.927Z,98350.95
2018-11-28T19:25:49.927Z,98345.63
2018-11-28T19:28:14.222Z,98343.17
2018-11-28T19:30:41.879Z,98342.64
2018-11-28T19:33:12.142Z,98344.69
2018-11-28T19:35:39.788Z,98336.41
2018-11-28T19:38:09.116Z,98335.34
2018-11-28T19:40:40.649Z,98323.83
2018-11-28T19:43:08.288Z,98325.13
2018-11-28T19:45:35.977Z,98331.55
2018-11-28T19:48:03.608Z,98330.56
2018-11-28T19:50:32.350Z,98334.06
2018-11-28T19:52:59.994Z,98329.20
2018-11-28T19:55:27.618Z,98328.81
2018-11-28T19:57:55.351Z,98331.62
2018-11-28T20:00:22.980Z,98331.37
2018-11-28T20:02:50.643Z,98324.48
2018-11-28T20:05:18.268Z,98303.65
2018-11-28T20:07:46.597Z,98331.72
2018-11-28T20:10:18.867Z,98337.58
2018-11-28T20:12:46.543Z,98325.30
2018-11-28T20:15:15.863Z,98326.34
2018-11-28T20:17:43.493Z,98336.05
2018-11-28T20:20:11.668Z,98337.34
2018-11-28T20:22:39.298Z,98337.34
2018-11-28T20:25:09.618Z,98352.63
2018-11-28T20:27:37.238Z,98353.92
2018-11-28T20:30:07.466Z,98340.85
2018-11-28T20:32:35.104Z,98338.92
2018-11-28T20:35:03.126Z,98349.42
2018-11-28T20:37:30.512Z,98355.85
2018-11-28T20:39:58.153Z,98354.87
2018-11-28T20:42:25.835Z,98339.56
2018-11-28T20:44:53.468Z,98346.92
2018-11-28T20:47:21.097Z,98336.34
2018-11-28T20:49:48.744Z,98332.79
2018-11-28T20:52:16.393Z,98343.23
2018-11-28T20:54:44.028Z,98357.78
2018-11-28T20:57:17.180Z,98355.14
2018-11-28T20:59:39.441Z,98363.16
2018-11-28T21:02:07.040Z,98362.33
2018-11-28T21:04:34.740Z,98361.30
2018-11-28T21:07:02.375Z,98357.27
2018-11-28T21:09:30.027Z,98353.80
2018-11-28T21:11:57.646Z,98363.69
2018-11-28T21:14:25.495Z,98360.54
2018-11-28T21:16:53.112Z,98352.45
2018-11-28T21:19:20.731Z,98344.05
2018-11-28T21:21:48.391Z,98336.28
2018-11-28T21:24:16.019Z,98331.37
2018-11-28T21:26:43.684Z,98334.11
2018-11-28T21:29:11.306Z,98335.28
2018-11-28T21:31:38.935Z,98333.72
2018-11-28T21:34:06.585Z,98334.13
2018-11-28T21:36:34.199Z,98334.70
2018-11-28T21:39:01.855Z,98337.58
2018-11-28T21:41:29.491Z,98343.30
2018-11-28T21:43:57.251Z,98339.97
2018-11-28T21:46:24.924Z,98340.02
2018-11-28T21:48:52.607Z,98342.42
2018-11-28T21:51:20.226Z,98334.19
2018-11-28T21:53:47.851Z,98325.47
2018-11-28T21:56:15.467Z,98333.55
2018-11-28T21:58:43.100Z,98329.33
2018-11-28T22:01:10.733Z,98338.63
2018-11-28T22:03:38.344Z,98344.81
2018-11-28T22:06:06.077Z,98349.67
2018-11-28T22:08:33.710Z,98349.08
2018-11-28T22:11:01.348Z,98350.53
2018-11-28T22:13:28.984Z,98355.09
2018-11-28T22:15:56.712Z,98354.28
2018-11-28T22:18:24.335Z,98335.77
2018-11-28T22:20:51.968Z,98340.61
2018-11-28T22:23:19.600Z,98355.39
2018-11-28T22:25:47.218Z,98366.96
2018-11-28T22:28:14.852Z,98352.99
2018-11-28T22:30:42.492Z,98336.64
2018-11-28T22:33:10.117Z,98326.93
2018-11-28T22:35:37.730Z,98321.27
2018-11-28T22:38:05.679Z,98330.20
2018-11-28T22:40:33.303Z,98336.58
2018-11-28T22:43:00.935Z,98324.41
2018-11-28T22:45:30.076Z,98319.28
2018-11-28T22:47:57.686Z,98317.48
2018-11-28T22:50:25.315Z,98313.73
2018-11-28T22:52:52.974Z,98307.84
2018-11-28T22:55:20.836Z,98305.92
2018-11-28T22:57:48.458Z,98305.33
2018-11-28T23:00:24.738Z,98316.94
2018-11-28T23:02:53.981Z,98320.62
2018-11-28T23:05:22.236Z,98325.83
2018-11-28T23:07:49.868Z,98323.95
2018-11-28T23:10:17.496Z,98326.59
2018-11-28T23:12:45.143Z,98319.88
2018-11-28T23:15:12.763Z,98305.33
2018-11-28T23:17:40.384Z,98303.51
2018-11-28T23:20:08.617Z,98294.34
2018-11-28T23:22:36.253Z,98301.41
2018-11-28T23:25:04.138Z,98299.95
2018-11-28T23:27:31.780Z,98301.06
2018-11-28T23:29:59.423Z,98301.30
2018-11-28T23:32:27.072Z,98300.47
2018-11-28T23:34:54.711Z,98291.36
2018-11-28T23:37:22.325Z,98288.73
2018-11-28T23:39:49.946Z,98283.96
2018-11-28T23:42:17.567Z,98268.89
2018-11-28T23:44:45.190Z,98252.53
2018-11-28T23:47:12.819Z,98259.03
2018-11-28T23:49:40.463Z,98275.12
2018-11-28T23:52:08.124Z,98269.99
2018-11-28T23:54:35.743Z,98272.73
2018-11-28T23:57:03.456Z,98278.13
2018-11-28T23:59:31.084Z,98279.45
